createdAt,value
2022-11-05T00:00:43.838Z,11.10
2022-11-05T00:03:42.894Z,11.30
2022-11-05T00:06:47.918Z,11.10
2022-11-05T00:09:32.467Z,11.00
2022-11-05T00:12:39.843Z,11.00
2022-11-05T00:15:39.990Z,11.20
2022-11-05T00:18:27.850Z,11.30
2022-11-05T00:21:36.881Z,11.20
2022-11-05T00:24:35.670Z,11.20
2022-11-05T00:27:22.880Z,11.10
2022-11-05T00:30:04.094Z,11.20
2022-11-05T00:32:53.867Z,11.10
2022-11-05T00:35:36.035Z,11.10
2022-11-05T00:38:23.861Z,11.20
2022-11-05T00:41:06.057Z,11.10
2022-11-05T00:44:10.941Z,11.20
2022-11-05T00:47:18.885Z,11.10
2022-11-05T00:50:07.023Z,11.10
2022-11-05T00:53:02.852Z,11.10
2022-11-05T00:55:45.105Z,11.00
2022-11-05T00:58:33.866Z,10.90
2022-11-05T01:01:16.016Z,10.90
2022-11-05T01:04:03.959Z,10.90
2022-11-05T01:06:46.646Z,10.80
2022-11-05T01:09:33.861Z,10.70
2022-11-05T01:12:15.317Z,10.90
2022-11-05T01:15:02.870Z,10.80
2022-11-05T01:17:44.260Z,10.70
2022-11-05T01:20:32.843Z,10.70
2022-11-05T01:23:22.217Z,10.80
2022-11-05T01:26:06.056Z,10.70
2022-11-05T01:28:58.060Z,10.50
2022-11-05T01:31:39.080Z,10.40
2022-11-05T01:34:26.846Z,10.50
2022-11-05T01:37:21.890Z,10.50
2022-11-05T01:40:11.846Z,10.40
2022-11-05T01:42:54.106Z,10.30
2022-11-05T01:45:41.863Z,10.40
2022-11-05T01:48:24.106Z,10.40
2022-11-05T01:51:14.916Z,10.30
2022-11-05T01:54:04.890Z,10.20
2022-11-05T01:56:49.272Z,10.20
2022-11-05T01:59:39.857Z,10.10
2022-11-05T02:02:21.558Z,10.10
2022-11-05T02:05:11.867Z,10.10
2022-11-05T02:07:53.382Z,10.00
2022-11-05T02:10:41.864Z,10.00
2022-11-05T02:13:24.639Z,9.90
2022-11-05T02:16:15.978Z,9.90
2022-11-05T02:19:00.104Z,9.80
2022-11-05T02:21:54.876Z,9.60
2022-11-05T02:25:05.918Z,9.60
2022-11-05T02:27:58.001Z,10.00
2022-11-05T02:31:00.984Z,9.90
2022-11-05T02:33:44.931Z,9.90
2022-11-05T02:36:38.871Z,10.10
2022-11-05T02:39:27.102Z,10.00
2022-11-05T02:42:19.877Z,9.90
2022-11-05T02:45:07.294Z,9.90
2022-11-05T02:47:58.872Z,9.80
2022-11-05T02:50:44.913Z,10.00
2022-11-05T02:53:33.974Z,9.90
2022-11-05T02:56:19.209Z,9.90
2022-11-05T02:59:06.896Z,9.90
2022-11-05T03:01:48.664Z,9.90
2022-11-05T03:04:38.891Z,9.90
2022-11-05T03:07:27.306Z,9.80
2022-11-05T03:10:23.889Z,10.00
2022-11-05T03:13:13.214Z,9.80
2022-11-05T03:16:07.900Z,9.80
2022-11-05T03:18:52.113Z,9.90
2022-11-05T03:21:45.898Z,10.00
2022-11-05T03:24:28.851Z,10.00
2022-11-05T03:27:17.962Z,10.00
2022-11-05T03:30:00.570Z,9.90
2022-11-05T03:32:49.897Z,9.90
2022-11-05T03:35:45.896Z,9.90
2022-11-05T03:38:36.084Z,9.70
2022-11-05T03:41:18.985Z,9.80
2022-11-05T03:44:02.552Z,9.90
2022-11-05T03:46:54.954Z,9.90
2022-11-05T03:49:38.406Z,9.80
2022-11-05T03:52:28.991Z,9.80
2022-11-05T03:55:11.753Z,9.80
2022-11-05T03:58:00.910Z,9.70
2022-11-05T04:00:42.488Z,9.70
2022-11-05T04:03:29.894Z,9.60
2022-11-05T04:06:28.968Z,9.50
2022-11-05T04:09:33.900Z,9.50
2022-11-05T04:12:40.921Z,9.50
2022-11-05T04:15:22.131Z,9.60
2022-11-05T04:18:08.917Z,9.60
2022-11-05T04:21:07.904Z,9.60
2022-11-05T04:24:12.916Z,9.70
2022-11-05T04:27:00.925Z,9.70
2022-11-05T04:30:01.244Z,9.50
2022-11-05T04:32:48.938Z,9.50
2022-11-05T04:35:36.933Z,9.60
2022-11-05T04:38:20.110Z,9.70
2022-11-05T04:41:19.911Z,9.50
2022-11-05T04:44:01.185Z,9.50
2022-11-05T04:46:49.958Z,9.40
2022-11-05T04:49:31.087Z,9.30
2022-11-05T04:52:18.915Z,9.20
2022-11-05T04:55:00.040Z,9.40
2022-11-05T04:57:47.940Z,9.40
2022-11-05T05:00:30.293Z,9.40
2022-11-05T05:03:18.922Z,9.30
2022-11-05T05:06:06.911Z,9.40
2022-11-05T05:08:48.785Z,9.80
2022-11-05T05:11:36.916Z,9.70
2022-11-05T05:14:18.417Z,9.70
2022-11-05T05:17:05.934Z,9.50
2022-11-05T05:20:05.970Z,9.50
2022-11-05T05:22:54.026Z,9.50
2022-11-05T05:25:35.424Z,9.50
2022-11-05T05:28:22.967Z,9.30
2022-11-05T05:31:04.389Z,9.40
2022-11-05T05:33:51.926Z,9.40
2022-11-05T05:36:48.027Z,9.40
2022-11-05T05:39:29.364Z,9.40
2022-11-05T05:42:16.958Z,9.30
2022-11-05T05:44:58.303Z,9.30
2022-11-05T05:47:45.930Z,9.20
2022-11-05T05:50:27.340Z,9.10
2022-11-05T05:53:22.930Z,9.10
2022-11-05T05:56:04.351Z,9.20
2022-11-05T05:58:52.950Z,9.10
2022-11-05T06:01:48.051Z,9.20
2022-11-05T06:04:29.282Z,9.20
2022-11-05T06:07:16.919Z,9.10
2022-11-05T06:09:59.729Z,8.90
2022-11-05T06:12:46.947Z,9.00
2022-11-05T06:15:33.100Z,8.90
2022-11-05T06:18:23.007Z,8.80
2022-11-05T06:21:04.803Z,8.90
2022-11-05T06:23:52.945Z,8.90
2022-11-05T06:26:35.681Z,9.00
2022-11-05T06:29:22.990Z,8.90
2022-11-05T06:32:10.978Z,8.80
2022-11-05T06:34:52.186Z,8.90
2022-11-05T06:37:40.979Z,8.80
2022-11-05T06:40:22.109Z,8.90
2022-11-05T06:43:11.215Z,8.80
2022-11-05T06:45:52.159Z,8.90
2022-11-05T06:48:39.977Z,9.10
2022-11-05T06:51:21.134Z,9.10
2022-11-05T06:54:08.984Z,9.00
2022-11-05T06:56:50.095Z,9.10
2022-11-05T06:59:38.947Z,9.30
2022-11-05T07:02:27.087Z,9.20
2022-11-05T07:05:11.109Z,9.20
2022-11-05T07:08:00.007Z,9.30
2022-11-05T07:10:41.454Z,9.30
2022-11-05T07:13:29.058Z,9.00
2022-11-05T07:16:11.792Z,9.00
2022-11-05T07:18:58.958Z,9.00
2022-11-05T07:21:40.944Z,8.90
2022-11-05T07:24:29.013Z,8.90
2022-11-05T07:27:10.503Z,9.10
2022-11-05T07:29:57.981Z,9.30
2022-11-05T07:32:48.098Z,9.30
2022-11-05T07:35:29.187Z,9.30
2022-11-05T07:38:16.968Z,9.20
2022-11-05T07:40:58.109Z,9.20
2022-11-05T07:43:45.989Z,9.30
2022-11-05T07:46:27.207Z,9.30
2022-11-05T07:49:15.968Z,9.40
2022-11-05T07:51:57.081Z,9.30
2022-11-05T07:54:44.977Z,9.30
2022-11-05T07:57:26.144Z,9.20
2022-11-05T08:00:14.984Z,9.30
2022-11-05T08:03:13.663Z,9.30
2022-11-05T08:05:56.721Z,9.20
2022-11-05T08:08:44.053Z,9.30
2022-11-05T08:11:25.404Z,9.40
2022-11-05T08:14:13.064Z,9.60
2022-11-05T08:16:54.382Z,9.60
2022-11-05T08:19:41.990Z,9.60
2022-11-05T08:22:24.742Z,9.70
2022-11-05T08:25:12.004Z,9.80
2022-11-05T08:27:56.161Z,10.00
2022-11-05T08:30:45.031Z,10.20
2022-11-05T08:33:34.040Z,10.20
2022-11-05T08:36:28.983Z,10.30
2022-11-05T08:39:18.077Z,10.40
2022-11-05T08:41:59.225Z,10.40
2022-11-05T08:44:47.039Z,10.60
2022-11-05T08:47:28.235Z,10.70
2022-11-05T08:50:15.979Z,10.60
2022-11-05T08:52:57.231Z,10.40
2022-11-05T08:55:45.991Z,10.50
2022-11-05T08:58:27.132Z,10.80
2022-11-05T09:01:15.086Z,10.70
2022-11-05T09:04:05.053Z,10.70
2022-11-05T09:06:46.391Z,10.70
2022-11-05T09:09:34.013Z,10.70
2022-11-05T09:12:16.778Z,10.90
2022-11-05T09:15:04.072Z,11.20
2022-11-05T09:17:45.492Z,11.40
2022-11-05T09:20:33.006Z,11.10
2022-11-05T09:23:15.519Z,11.30
2022-11-05T09:26:03.013Z,11.40
2022-11-05T09:28:46.920Z,11.40
2022-11-05T09:31:35.022Z,11.40
2022-11-05T09:34:23.070Z,11.40
2022-11-05T09:37:11.219Z,11.50
2022-11-05T09:39:51.998Z,11.60
2022-11-05T09:42:36.030Z,11.60
2022-11-05T09:45:29.004Z,11.90
2022-11-05T09:48:14.778Z,12.00
2022-11-05T09:51:04.025Z,12.10
2022-11-05T09:53:46.312Z,12.00
2022-11-05T09:56:36.014Z,12.00
2022-11-05T09:59:20.129Z,12.00
2022-11-05T10:02:15.073Z,11.90
2022-11-05T10:05:09.391Z,12.00
2022-11-05T10:07:55.227Z,12.00
2022-11-05T10:10:46.127Z,12.10
2022-11-05T10:13:31.120Z,12.20
2022-11-05T10:16:23.089Z,12.10
2022-11-05T10:19:09.833Z,12.30
2022-11-05T10:22:06.658Z,12.60
2022-11-05T10:24:49.241Z,12.40
2022-11-05T10:27:38.007Z,12.60
2022-11-05T10:30:21.286Z,12.50
2022-11-05T10:33:11.254Z,12.40
2022-11-05T10:36:04.034Z,12.70
2022-11-05T10:38:52.199Z,12.50
2022-11-05T10:41:51.048Z,12.30
2022-11-05T10:44:36.031Z,12.20
2022-11-05T10:47:36.117Z,12.50
2022-11-05T10:50:18.363Z,12.50
2022-11-05T10:53:11.179Z,12.80
2022-11-05T10:55:54.032Z,12.90
2022-11-05T10:58:44.021Z,12.80
2022-11-05T11:01:26.229Z,12.80
2022-11-05T11:04:22.077Z,12.90
2022-11-05T11:07:03.410Z,12.80
2022-11-05T11:09:53.062Z,12.70
2022-11-05T11:12:45.047Z,13.00
2022-11-05T11:15:33.607Z,13.10
2022-11-05T11:18:45.118Z,13.20
2022-11-05T11:21:27.251Z,13.30
2022-11-05T11:24:28.555Z,13.20
2022-11-05T11:27:18.256Z,12.90
2022-11-05T11:30:07.020Z,12.80
2022-11-05T11:32:48.316Z,12.90
2022-11-05T11:35:36.051Z,12.80
2022-11-05T11:38:21.219Z,12.90
2022-11-05T11:41:11.055Z,13.00
2022-11-05T11:44:01.129Z,13.20
2022-11-05T11:46:42.725Z,13.30
2022-11-05T11:49:45.040Z,13.40
2022-11-05T11:52:28.785Z,13.60
2022-11-05T11:55:32.134Z,13.70
2022-11-05T11:58:13.590Z,13.60
2022-11-05T12:01:05.059Z,13.70
2022-11-05T12:03:50.384Z,13.90
2022-11-05T12:06:41.062Z,13.90
2022-11-05T12:09:24.713Z,13.80
2022-11-05T12:12:16.065Z,13.90
2022-11-05T12:15:00.589Z,13.90
2022-11-05T12:17:57.127Z,13.80
2022-11-05T12:20:58.392Z,13.90
2022-11-05T12:23:59.090Z,14.00
2022-11-05T12:26:45.923Z,14.00
2022-11-05T12:29:51.059Z,13.90
2022-11-05T12:32:38.457Z,13.80
2022-11-05T12:35:33.044Z,13.90
2022-11-05T12:38:25.050Z,14.00
2022-11-05T12:41:11.292Z,14.00
2022-11-05T12:44:04.045Z,14.10
2022-11-05T12:46:54.063Z,14.10
2022-11-05T12:50:00.179Z,14.00
2022-11-05T12:52:53.301Z,14.00
2022-11-05T12:55:48.577Z,14.20
2022-11-05T12:58:33.272Z,14.10
2022-11-05T13:01:24.284Z,14.20
2022-11-05T13:04:08.747Z,14.00
2022-11-05T13:06:59.081Z,13.80
2022-11-05T13:09:44.241Z,14.10
2022-11-05T13:12:34.217Z,14.40
2022-11-05T13:15:22.349Z,14.20
2022-11-05T13:18:12.140Z,13.90
2022-11-05T13:20:56.347Z,14.10
2022-11-05T13:23:47.104Z,14.30
2022-11-05T13:26:32.301Z,14.20
2022-11-05T13:29:21.059Z,14.10
2022-11-05T13:32:04.197Z,14.20
2022-11-05T13:34:52.071Z,14.40
2022-11-05T13:37:59.074Z,14.40
2022-11-05T13:40:44.646Z,14.50
2022-11-05T13:43:41.138Z,14.40
2022-11-05T13:46:32.059Z,14.40
2022-11-05T13:49:26.142Z,14.30
2022-11-05T13:52:16.017Z,14.20
2022-11-05T13:55:19.107Z,14.10
2022-11-05T13:58:10.333Z,14.20
2022-11-05T14:01:02.219Z,14.20
2022-11-05T14:03:47.230Z,14.40
2022-11-05T14:06:38.198Z,14.20
2022-11-05T14:09:20.793Z,14.20
2022-11-05T14:12:09.180Z,14.10
2022-11-05T14:14:58.429Z,14.00
2022-11-05T14:18:08.094Z,14.20
2022-11-05T14:20:59.521Z,14.10
2022-11-05T14:23:56.122Z,14.30
2022-11-05T14:26:37.450Z,13.90
2022-11-05T14:29:43.218Z,14.00
2022-11-05T14:32:25.785Z,14.00
2022-11-05T14:35:18.126Z,14.00
2022-11-05T14:38:13.293Z,14.00
2022-11-05T14:41:06.178Z,13.90
2022-11-05T14:43:51.371Z,14.00
2022-11-05T14:46:47.108Z,13.90
2022-11-05T14:49:31.244Z,14.10
2022-11-05T14:52:24.097Z,14.10
2022-11-05T14:55:13.113Z,14.00
2022-11-05T14:58:05.761Z,13.80
2022-11-05T15:01:01.197Z,13.70
2022-11-05T15:04:02.429Z,13.60
2022-11-05T15:06:51.086Z,13.60
2022-11-05T15:09:35.226Z,13.50
2022-11-05T15:12:31.115Z,13.30
2022-11-05T15:15:23.165Z,13.30
2022-11-05T15:18:16.110Z,13.40
2022-11-05T15:20:59.416Z,13.30
2022-11-05T15:23:51.104Z,13.20
2022-11-05T15:26:42.003Z,13.20
2022-11-05T15:29:32.137Z,13.20
2022-11-05T15:32:17.397Z,13.20
2022-11-05T15:35:06.255Z,13.30
2022-11-05T15:38:02.911Z,13.20
2022-11-05T15:40:51.210Z,13.30
2022-11-05T15:43:46.685Z,13.30
2022-11-05T15:46:29.051Z,13.30
2022-11-05T15:49:21.127Z,13.20
2022-11-05T15:52:02.497Z,13.20
2022-11-05T15:54:51.142Z,13.20
2022-11-05T15:57:32.634Z,13.20
2022-11-05T16:00:29.137Z,13.10
2022-11-05T16:03:16.201Z,13.00
2022-11-05T16:06:04.113Z,13.10
2022-11-05T16:08:48.124Z,13.10
2022-11-05T16:11:37.219Z,13.00
2022-11-05T16:14:19.599Z,13.10
2022-11-05T16:17:09.134Z,13.10
2022-11-05T16:19:50.836Z,13.00
2022-11-05T16:22:39.166Z,13.00
2022-11-05T16:25:32.205Z,13.00
2022-11-05T16:28:15.572Z,13.00
2022-11-05T16:31:04.119Z,13.10
2022-11-05T16:33:50.345Z,12.90
2022-11-05T16:36:39.142Z,13.00
2022-11-05T16:39:27.294Z,12.90
2022-11-05T16:42:09.155Z,12.90
2022-11-05T16:44:50.584Z,12.80
2022-11-05T16:47:38.301Z,13.00
2022-11-05T16:50:23.015Z,12.90
2022-11-05T16:53:11.150Z,12.80
2022-11-05T16:55:52.512Z,12.80
2022-11-05T16:58:40.162Z,12.80
2022-11-05T17:01:29.297Z,13.00
2022-11-05T17:04:10.467Z,13.10
2022-11-05T17:06:59.212Z,13.00
2022-11-05T17:09:40.297Z,12.80
2022-11-05T17:12:28.177Z,12.80
2022-11-05T17:15:09.365Z,12.80
2022-11-05T17:17:57.170Z,12.70
2022-11-05T17:20:41.596Z,12.90
2022-11-05T17:23:33.230Z,12.60
2022-11-05T17:26:16.356Z,12.70
2022-11-05T17:29:04.142Z,12.80
2022-11-05T17:31:53.268Z,12.70
2022-11-05T17:34:34.642Z,12.70
2022-11-05T17:37:22.147Z,12.80
2022-11-05T17:40:05.593Z,12.80
2022-11-05T17:42:53.212Z,12.70
2022-11-05T17:45:34.646Z,12.70
2022-11-05T17:48:22.163Z,12.80
2022-11-05T17:51:03.576Z,12.60
2022-11-05T17:53:52.161Z,12.60
2022-11-05T17:56:40.279Z,12.80
2022-11-05T17:59:31.153Z,12.90
2022-11-05T18:02:19.263Z,12.70
2022-11-05T18:05:00.304Z,12.90
2022-11-05T18:07:48.242Z,12.90
2022-11-05T18:10:30.357Z,12.80
2022-11-05T18:13:19.151Z,12.80
2022-11-05T18:16:01.350Z,12.80
2022-11-05T18:18:49.304Z,12.70
2022-11-05T18:21:30.414Z,12.80
2022-11-05T18:24:19.183Z,12.70
2022-11-05T18:27:07.237Z,12.60
2022-11-05T18:29:49.899Z,12.80
2022-11-05T18:32:37.205Z,12.80
2022-11-05T18:35:21.375Z,12.80
2022-11-05T18:38:09.181Z,12.50
2022-11-05T18:40:50.553Z,12.50
2022-11-05T18:43:38.285Z,12.50
2022-11-05T18:46:51.115Z,12.60
2022-11-05T18:49:29.171Z,12.80
2022-11-05T18:52:17.180Z,12.70
2022-11-05T18:54:58.409Z,12.90
2022-11-05T18:57:46.274Z,13.00
2022-11-05T19:00:28.324Z,12.90
2022-11-05T19:03:17.253Z,12.90
2022-11-05T19:05:59.542Z,12.80
2022-11-05T19:08:47.163Z,12.90
2022-11-05T19:11:30.383Z,12.90
2022-11-05T19:14:18.255Z,12.90
2022-11-05T19:16:59.469Z,12.80
2022-11-05T19:19:48.184Z,12.90
2022-11-05T19:22:29.432Z,12.90
2022-11-05T19:25:17.210Z,12.70
2022-11-05T19:28:05.161Z,12.60
2022-11-05T19:30:46.631Z,12.70
2022-11-05T19:33:34.220Z,12.70
2022-11-05T19:36:17.773Z,12.70
2022-11-05T19:39:08.169Z,12.70
2022-11-05T19:41:49.746Z,12.70
2022-11-05T19:44:37.193Z,12.70
2022-11-05T19:47:18.618Z,12.70
2022-11-05T19:50:06.288Z,12.80
2022-11-05T19:52:48.964Z,12.90
2022-11-05T19:55:36.230Z,12.50
2022-11-05T19:58:17.696Z,12.60
2022-11-05T20:01:05.243Z,12.60
2022-11-05T20:03:53.260Z,12.50
2022-11-05T20:06:37.854Z,12.60
2022-11-05T20:09:27.276Z,12.60
2022-11-05T20:12:08.416Z,12.40
2022-11-05T20:14:56.209Z,12.40
2022-11-05T20:17:39.230Z,12.30
2022-11-05T20:20:27.211Z,12.20
2022-11-05T20:23:08.471Z,12.10
2022-11-05T20:25:57.213Z,12.20
2022-11-05T20:28:46.220Z,12.10
2022-11-05T20:31:27.633Z,12.30
2022-11-05T20:34:16.241Z,12.20
2022-11-05T20:36:57.664Z,12.20
2022-11-05T20:39:45.194Z,12.40
2022-11-05T20:42:28.065Z,12.40
2022-11-05T20:45:16.297Z,12.50
2022-11-05T20:47:57.693Z,12.40
2022-11-05T20:50:45.187Z,12.30
2022-11-05T20:53:26.602Z,12.30
2022-11-05T20:56:15.306Z,12.10
2022-11-05T20:58:58.871Z,12.10
2022-11-05T21:01:41.400Z,12.20
2022-11-05T21:04:29.218Z,12.10
2022-11-05T21:07:10.623Z,12.10
2022-11-05T21:09:58.276Z,12.10
2022-11-05T21:12:39.639Z,12.20
2022-11-05T21:15:30.225Z,12.10
2022-11-05T21:18:11.906Z,12.10
2022-11-05T21:21:00.239Z,12.00
2022-11-05T21:23:42.195Z,11.90
2022-11-05T21:26:31.278Z,11.90
2022-11-05T21:29:12.732Z,12.10
2022-11-05T21:32:03.125Z,12.00
2022-11-05T21:34:51.301Z,12.00
2022-11-05T21:37:32.452Z,12.00
2022-11-05T21:40:20.248Z,11.80
2022-11-05T21:43:01.475Z,11.80
2022-11-05T21:45:50.238Z,12.00
2022-11-05T21:48:33.938Z,12.10
2022-11-05T21:51:38.244Z,11.90
2022-11-05T21:54:36.936Z,11.90
2022-11-05T21:57:43.243Z,11.80
2022-11-05T22:00:31.246Z,12.00
2022-11-05T22:03:12.601Z,12.00
2022-11-05T22:06:02.313Z,11.70
2022-11-05T22:08:43.793Z,11.70
2022-11-05T22:11:31.253Z,11.60
2022-11-05T22:14:12.717Z,11.60
2022-11-05T22:17:03.211Z,11.80
2022-11-05T22:19:44.601Z,11.80
2022-11-05T22:22:34.240Z,11.70
2022-11-05T22:25:15.912Z,11.80
2022-11-05T22:28:03.251Z,11.80
2022-11-05T22:30:51.244Z,11.90
2022-11-05T22:33:32.425Z,12.00
2022-11-05T22:36:20.241Z,12.00
2022-11-05T22:39:19.256Z,12.00
2022-11-05T22:42:08.682Z,12.00
2022-11-05T22:44:49.475Z,12.00
2022-11-05T22:47:37.280Z,11.90
2022-11-05T22:50:18.458Z,11.80
2022-11-05T22:53:06.238Z,11.80
2022-11-05T22:55:56.239Z,11.80
2022-11-05T22:58:39.145Z,11.90
2022-11-05T23:01:28.396Z,11.90
2022-11-05T23:04:09.726Z,11.90
2022-11-05T23:07:14.250Z,12.00
2022-11-05T23:10:13.145Z,12.00
2022-11-05T23:13:03.253Z,12.00
2022-11-05T23:16:02.449Z,12.20
2022-11-05T23:19:07.260Z,12.10
2022-11-05T23:22:12.275Z,12.10
2022-11-05T23:24:54.438Z,12.20
2022-11-05T23:27:43.350Z,12.10
2022-11-05T23:30:26.443Z,12.10
2022-11-05T23:33:13.239Z,12.20
2022-11-05T23:36:23.596Z,12.30
2022-11-05T23:39:11.269Z,12.30
2022-11-05T23:42:09.701Z,12.40
2022-11-05T23:45:15.246Z,12.50
2022-11-05T23:48:22.266Z,12.40
2022-11-05T23:51:11.435Z,12.40
2022-11-05T23:53:52.258Z,12.40
2022-11-05T23:56:33.852Z,12.30
2022-11-05T23:59:21.270Z,12.50
